createdAt,value
2024-03-08T00:01:29.236Z,-0.60
2024-03-08T00:03:59.486Z,-0.60
2024-03-08T00:06:29.728Z,-0.60
2024-03-08T00:09:00.244Z,-0.60
2024-03-08T00:11:30.647Z,-0.60
2024-03-08T00:14:03.515Z,-0.60
2024-03-08T00:16:33.666Z,-0.60
2024-03-08T00:19:03.878Z,-0.60
2024-03-08T00:26:35.107Z,-0.60
2024-03-08T00:29:09.101Z,-0.60
2024-03-08T00:31:39.310Z,-0.60
2024-03-08T00:34:12.969Z,-0.60
2024-03-08T00:36:43.168Z,-0.60
2024-03-08T00:39:13.505Z,-0.70
2024-03-08T00:41:45.984Z,-0.70
2024-03-08T00:44:18.827Z,-0.70
2024-03-08T00:46:51.036Z,-0.70
2024-03-08T00:49:23.051Z,-0.70
2024-03-08T00:51:53.185Z,-0.70
2024-03-08T00:59:26.946Z,-0.80
2024-03-08T01:01:57.878Z,-0.90
2024-03-08T01:04:30.365Z,-0.90
2024-03-08T01:07:00.879Z,-1.00
2024-03-08T01:09:31.645Z,-1.00
2024-03-08T01:12:02.703Z,-1.00
2024-03-08T01:14:35.592Z,-1.00
2024-03-08T01:17:05.770Z,-1.10
2024-03-08T01:29:42.059Z,-1.10
2024-03-08T01:32:13.337Z,-1.10
2024-03-08T01:34:43.479Z,-1.10
2024-03-08T01:42:18.910Z,-1.10
2024-03-08T01:44:52.806Z,-1.00
2024-03-08T01:47:24.304Z,-1.00
2024-03-08T01:49:54.649Z,-1.00
2024-03-08T01:52:26.723Z,-0.80
2024-03-08T01:54:57.377Z,-0.80
2024-03-08T01:57:27.519Z,-0.80
2024-03-08T02:00:00.446Z,-0.80
2024-03-08T02:02:32.599Z,-0.80
2024-03-08T02:05:04.459Z,-0.90
2024-03-08T02:07:34.510Z,-0.90
2024-03-08T02:10:04.709Z,-0.90
2024-03-08T02:15:08.448Z,-0.90
2024-03-08T02:20:11.680Z,-1.00
2024-03-08T02:22:44.585Z,-1.00
2024-03-08T02:25:15.604Z,-1.00
2024-03-08T02:27:45.759Z,-1.00
2024-03-08T02:30:18.793Z,-1.10
2024-03-08T02:32:49.192Z,-1.10
2024-03-08T02:35:19.872Z,-1.20
2024-03-08T02:37:52.562Z,-1.20
2024-03-08T02:40:23.343Z,-1.20
2024-03-08T02:42:53.888Z,-1.30
2024-03-08T02:45:24.136Z,-1.30
2024-03-08T02:47:54.387Z,-1.30
2024-03-08T02:50:24.459Z,-1.40
2024-03-08T02:52:57.579Z,-1.40
2024-03-08T02:55:27.780Z,-1.50
2024-03-08T02:57:58.346Z,-1.50
2024-03-08T03:00:28.514Z,-1.60
2024-03-08T03:02:58.845Z,-1.60
2024-03-08T03:05:29.100Z,-1.60
2024-03-08T03:08:02.143Z,-1.80
2024-03-08T03:10:32.585Z,-1.80
2024-03-08T03:15:33.134Z,-1.80
2024-03-08T03:18:03.414Z,-1.80
2024-03-08T03:20:42.164Z,-1.80
2024-03-08T03:23:21.983Z,-1.70
2024-03-08T03:25:53.629Z,-1.80
2024-03-08T03:28:25.288Z,-1.80
2024-03-08T03:30:55.492Z,-1.80
2024-03-08T03:33:25.777Z,-1.70
2024-03-08T03:35:56.261Z,-1.70
2024-03-08T03:38:29.406Z,-1.60
2024-03-08T03:41:05.621Z,-1.60
2024-03-08T03:53:41.493Z,-1.60
2024-03-08T03:58:42.261Z,-1.60
2024-03-08T04:01:13.968Z,-1.60
2024-03-08T04:03:46.352Z,-1.50
2024-03-08T04:06:16.483Z,-1.50
2024-03-08T04:08:49.250Z,-1.50
2024-03-08T04:11:19.912Z,-1.50
2024-03-08T04:13:50.052Z,-1.50
2024-03-08T04:16:20.320Z,-1.60
2024-03-08T04:18:50.713Z,-1.60
2024-03-08T04:21:21.310Z,-1.60
2024-03-08T04:23:54.049Z,-1.60
2024-03-08T04:26:24.181Z,-1.60
2024-03-08T04:38:58.957Z,-1.70
2024-03-08T04:54:06.213Z,-1.60
2024-03-08T05:09:17.443Z,-1.90
2024-03-08T05:11:48.813Z,-1.90
2024-03-08T05:19:24.640Z,-1.70
2024-03-08T05:21:54.791Z,-1.70
2024-03-08T05:24:27.445Z,-1.60
2024-03-08T05:39:34.607Z,-1.80
2024-03-08T05:54:42.379Z,-1.70
2024-03-08T06:09:49.379Z,-1.70
2024-03-08T06:24:55.507Z,-1.60
2024-03-08T06:40:02.127Z,-1.10
2024-03-08T06:52:38.032Z,-0.30
2024-03-08T06:55:13.455Z,-0.30
2024-03-08T06:57:44.344Z,-0.10
2024-03-08T07:00:20.206Z,0.10
2024-03-08T07:10:25.785Z,0.30
2024-03-08T07:23:00.137Z,0.50
2024-03-08T07:25:33.163Z,0.60
2024-03-08T07:33:17.085Z,0.90
2024-03-08T07:40:55.160Z,1.10
2024-03-08T07:56:01.587Z,1.40
2024-03-08T08:11:10.553Z,1.90
2024-03-08T08:13:40.938Z,1.90
2024-03-08T08:26:15.837Z,2.10
2024-03-08T08:36:20.786Z,2.30
2024-03-08T08:41:24.886Z,2.60
2024-03-08T08:46:42.118Z,2.60
2024-03-08T08:56:51.297Z,2.90
2024-03-08T09:11:59.841Z,3.20
2024-03-08T09:27:05.734Z,3.80
2024-03-08T09:42:16.360Z,4.70
2024-03-08T09:44:49.525Z,4.90
2024-03-08T09:47:21.935Z,5.10
2024-03-08T09:52:23.050Z,5.50
2024-03-08T09:54:53.250Z,5.70
2024-03-08T09:57:26.007Z,5.80
2024-03-08T10:10:00.688Z,6.60
2024-03-08T10:12:33.507Z,6.80
2024-03-08T10:15:03.640Z,6.80
2024-03-08T10:20:06.245Z,7.00
2024-03-08T10:25:08.253Z,7.10
2024-03-08T10:27:42.271Z,7.20
2024-03-08T10:30:21.116Z,7.30
2024-03-08T10:32:53.005Z,7.40
2024-03-08T10:35:24.037Z,7.40
2024-03-08T10:37:59.971Z,8.10
2024-03-08T10:40:31.123Z,7.60
2024-03-08T10:43:05.514Z,7.60
2024-03-08T10:45:39.550Z,7.80
2024-03-08T10:48:35.917Z,8.00
2024-03-08T10:51:09.550Z,8.60
2024-03-08T10:53:42.839Z,8.60
2024-03-08T10:56:15.804Z,8.70
2024-03-08T10:58:50.756Z,8.80
2024-03-08T11:01:21.059Z,9.00
2024-03-08T11:03:55.005Z,9.20
2024-03-08T11:06:33.700Z,9.40
2024-03-08T11:11:36.271Z,9.30
2024-03-08T11:14:09.162Z,9.30
2024-03-08T11:16:48.144Z,9.40
2024-03-08T11:19:30.324Z,9.60
2024-03-08T11:22:09.102Z,9.80
2024-03-08T11:24:46.536Z,10.00
2024-03-08T11:27:17.124Z,10.00
2024-03-08T11:30:02.930Z,9.90
2024-03-08T11:32:34.184Z,13.30
2024-03-08T11:35:06.843Z,10.20
2024-03-08T11:37:38.788Z,10.10
2024-03-08T11:40:18.248Z,10.20
2024-03-08T11:42:53.000Z,10.40
2024-03-08T11:45:26.317Z,10.40
2024-03-08T11:47:58.797Z,10.20
2024-03-08T11:50:29.223Z,10.20
2024-03-08T11:53:05.729Z,10.30
2024-03-08T11:58:09.332Z,10.40
2024-03-08T12:00:42.696Z,10.50
2024-03-08T12:03:13.538Z,10.50
2024-03-08T12:08:14.401Z,10.40
2024-03-08T12:10:44.907Z,10.40
2024-03-08T12:13:15.864Z,10.40
2024-03-08T12:15:48.904Z,10.80
2024-03-08T12:18:19.233Z,10.80
2024-03-08T12:23:21.596Z,10.70
2024-03-08T12:28:23.717Z,10.60
2024-03-08T12:30:59.978Z,10.70
2024-03-08T12:33:30.793Z,10.50
2024-03-08T12:36:01.626Z,10.70
2024-03-08T12:38:33.113Z,10.40
2024-03-08T12:41:04.298Z,10.40
2024-03-08T12:43:35.480Z,10.40
2024-03-08T12:46:10.097Z,10.60
2024-03-08T12:48:42.036Z,10.80
2024-03-08T12:51:12.440Z,11.10
2024-03-08T12:53:45.379Z,11.10
2024-03-08T12:56:15.724Z,12.90
2024-03-08T12:58:45.954Z,11.30
2024-03-08T13:01:18.941Z,11.50
2024-03-08T13:03:50.895Z,11.50
2024-03-08T13:06:22.973Z,11.50
2024-03-08T13:08:54.758Z,11.60
2024-03-08T13:11:25.622Z,11.90
2024-03-08T13:16:31.078Z,12.00
2024-03-08T13:26:35.174Z,12.30
2024-03-08T13:31:41.080Z,12.30
2024-03-08T13:39:22.213Z,12.40
2024-03-08T13:41:52.489Z,12.40
2024-03-08T13:44:22.556Z,12.40
2024-03-08T13:46:59.482Z,12.50
2024-03-08T13:49:30.589Z,12.30
2024-03-08T13:57:04.942Z,11.60
2024-03-08T13:59:36.480Z,11.70
2024-03-08T14:02:14.670Z,11.70
2024-03-08T14:04:45.592Z,11.60
2024-03-08T14:12:19.199Z,12.10
2024-03-08T14:17:24.710Z,11.70
2024-03-08T14:19:55.964Z,11.80
2024-03-08T14:24:58.103Z,11.80
2024-03-08T14:32:34.429Z,11.50
2024-03-08T14:37:35.177Z,11.60
2024-03-08T14:40:06.564Z,11.80
2024-03-08T14:42:36.741Z,11.90
2024-03-08T14:45:08.466Z,11.90
2024-03-08T14:47:41.210Z,11.10
2024-03-08T14:50:13.920Z,11.80
2024-03-08T15:00:28.233Z,10.90
2024-03-08T15:03:01.185Z,10.80
2024-03-08T15:08:11.951Z,10.80
2024-03-08T15:10:46.157Z,10.80
2024-03-08T15:15:59.196Z,10.50
2024-03-08T15:18:36.208Z,10.20
2024-03-08T15:21:09.018Z,9.90
2024-03-08T15:26:14.833Z,9.90
2024-03-08T15:33:53.077Z,9.50
2024-03-08T15:46:31.671Z,9.10
2024-03-08T15:49:04.414Z,9.00
2024-03-08T15:54:09.162Z,8.90
2024-03-08T16:04:13.985Z,8.70
2024-03-08T16:19:24.372Z,8.20
2024-03-08T16:34:29.832Z,7.80
2024-03-08T16:47:05.332Z,5.40
2024-03-08T16:49:38.236Z,7.40
2024-03-08T16:52:08.980Z,7.40
2024-03-08T16:57:22.151Z,7.30
2024-03-08T17:04:56.530Z,7.00
2024-03-08T17:12:29.888Z,10.60
2024-03-08T17:20:07.993Z,6.50
2024-03-08T17:25:10.179Z,6.50
2024-03-08T17:30:20.979Z,6.40
2024-03-08T17:35:33.286Z,6.20
2024-03-08T17:40:41.848Z,6.00
2024-03-08T17:43:14.973Z,6.00
2024-03-08T17:45:47.626Z,5.90
2024-03-08T17:50:55.606Z,5.70
2024-03-08T18:06:05.939Z,5.40
2024-03-08T18:13:39.957Z,5.40
2024-03-08T18:16:12.831Z,5.20
2024-03-08T18:18:42.970Z,5.10
2024-03-08T18:21:15.688Z,5.10
2024-03-08T18:33:55.744Z,4.80
2024-03-08T18:36:31.602Z,4.80
2024-03-08T18:51:44.550Z,4.50
2024-03-08T19:06:57.786Z,4.10
2024-03-08T19:09:28.166Z,4.20
2024-03-08T19:22:03.390Z,3.80
2024-03-08T19:32:12.521Z,3.70
2024-03-08T19:37:15.823Z,3.10
2024-03-08T19:39:45.902Z,3.50
2024-03-08T19:52:24.083Z,3.40
2024-03-08T19:59:59.796Z,3.30
2024-03-08T20:07:36.035Z,3.10
2024-03-08T20:15:13.904Z,3.00
2024-03-08T20:17:47.103Z,2.90
2024-03-08T20:20:20.803Z,2.90
2024-03-08T20:22:54.544Z,2.80
2024-03-08T20:25:27.937Z,2.80
2024-03-08T20:28:01.657Z,2.80
2024-03-08T20:30:32.398Z,2.80
2024-03-08T20:33:04.467Z,2.70
2024-03-08T20:35:37.377Z,2.70
2024-03-08T20:38:11.359Z,2.70
2024-03-08T20:50:54.946Z,2.50
2024-03-08T20:53:29.170Z,2.40
2024-03-08T21:08:35.939Z,2.30
2024-03-08T21:16:10.618Z,2.30
2024-03-08T21:23:45.443Z,2.20
2024-03-08T21:38:50.861Z,2.10
2024-03-08T21:53:56.130Z,2.00
2024-03-08T22:09:08.132Z,1.90
2024-03-08T22:24:15.223Z,1.80
2024-03-08T22:34:17.226Z,1.80
2024-03-08T22:36:47.401Z,1.80
2024-03-08T22:39:20.108Z,1.80
2024-03-08T22:41:50.591Z,1.80
2024-03-08T22:44:20.739Z,1.80
2024-03-08T22:46:51.903Z,1.70
2024-03-08T22:49:22.322Z,1.70
2024-03-08T22:51:52.445Z,1.70
2024-03-08T22:54:26.425Z,1.70
2024-03-08T22:56:58.089Z,1.60
2024-03-08T22:59:29.241Z,1.60
2024-03-08T23:01:59.484Z,1.60
2024-03-08T23:04:29.625Z,1.50
2024-03-08T23:06:59.820Z,1.50
2024-03-08T23:09:34.445Z,1.50
2024-03-08T23:12:06.500Z,1.40
2024-03-08T23:14:36.684Z,1.50
2024-03-08T23:17:08.258Z,1.50
2024-03-08T23:19:39.373Z,1.50
2024-03-08T23:22:13.360Z,1.50
2024-03-08T23:24:46.054Z,1.50
2024-03-08T23:27:16.181Z,1.50
2024-03-08T23:29:46.294Z,1.50
2024-03-08T23:32:17.448Z,1.40
2024-03-08T23:34:47.633Z,1.40
2024-03-08T23:37:17.833Z,1.40
2024-03-08T23:39:50.822Z,1.30
2024-03-08T23:42:22.382Z,1.30
2024-03-08T23:44:52.722Z,1.30
2024-03-08T23:47:23.244Z,1.20
2024-03-08T23:49:55.354Z,1.20
2024-03-08T23:52:26.027Z,1.20
2024-03-08T23:54:59.895Z,1.20
2024-03-08T23:57:30.879Z,1.10
